Bowerman Airport
KHQM : rendu visible

Aérodrome :











RETROUVEZ-NOUS SUR...

 
LOGIN :

S'inscrire | Disclaimer

   EN    FR    IT 

 









Légende :    VFR   VFR Marginal   IFR   IFR Intensif   IFR Très Intensif
Visi : 
Plafond : 
>= 8 km
>= 3000ft
5 à 8 km
1000 à 3000 ft
1500m à 5 km
500 à 1000 ft
800 à 1500m
200 à 500 ft
< 800m
< 200 ft
Symboles :   Orages  Brouillard  Fortes neiges  Fortes précipitations  Vent > 20 kt






- Altitude de l'aérodrome : 18 ft


KHQM - Bowerman

DERNIER METAR :
  • 310753Z AUTO 29009KT 10SM FEW023 FEW029 OVC043 12/08 A2999 RMK AO2 SLP160 T01170083 401280106

METARs EXPIRÉS :
  • 310653Z AUTO 29008KT 10SM OVC046 12/08 A2998 RMK AO2 SLP156 T01170078
  • 310553Z AUTO 29008KT 10SM CLR 11/08 A2997 RMK AO2 SLP152 60001 T01110078 10122 20111 51009

TAF KHQM
Valide du 31 à 06h jusqu'au 01 à 06h UTC


310545Z 3106/0106 29009KT P6SM VCSH FEW024 BKN040
FM310900 25008KT P6SM SCT025 BKN040
FM311400 25006KT P6SM OVC015
FM311800 24012KT P6SM SCT020 OVC035
FIR KZSE / Amérique du Nord



MET'MAP, la Météo Aéronautique d'un coup d'oeil ! - Copyright ORBIFLY Décembre 2007 - Disclaimer

ORBIFLY MET'MAP TEAM :

Programmation & Développement : Alexandra Zaïnal
Sur une idée originale de : Baudouin d'Aumeries
Assistance à la programmation : Marc-Olivier Méhu
Soutien technique & logistique : Manuel Goepfert

Contact : metmap@orbifly.com




SOURCES & CREDITS :

   NOAA       Earth
Advisory